createdAt,value
2019-04-04T00:00:35.690Z,33.95
2019-04-04T00:02:43.459Z,34.08
2019-04-04T00:04:52.486Z,33.40
2019-04-04T00:07:01.908Z,40.10
2019-04-04T00:09:11.017Z,32.75
2019-04-04T00:11:18.724Z,36.08
2019-04-04T00:13:26.420Z,32.28
2019-04-04T00:15:34.092Z,40.60
2019-04-04T00:17:42.631Z,39.08
2019-04-04T00:19:51.520Z,38.70
2019-04-04T00:22:00.263Z,32.80
2019-04-04T00:24:09.144Z,34.90
2019-04-04T00:26:17.551Z,41.28
2019-04-04T00:28:25.319Z,36.08
2019-04-04T00:30:34.209Z,37.60
2019-04-04T00:32:42.888Z,35.98
2019-04-04T00:34:50.605Z,37.73
2019-04-04T00:36:58.345Z,40.98
2019-04-04T00:39:10.025Z,34.58
2019-04-04T00:41:17.703Z,36.98
2019-04-04T00:43:25.443Z,34.00
2019-04-04T00:45:34.336Z,32.85
2019-04-04T00:47:42.078Z,41.60
2019-04-04T00:49:49.743Z,36.77
2019-04-04T00:51:57.584Z,35.48
2019-04-04T00:54:05.494Z,37.73
2019-04-04T00:56:13.263Z,39.85
2019-04-04T00:58:21.465Z,36.50
2019-04-04T01:00:29.209Z,36.83
2019-04-04T01:02:36.881Z,34.05
2019-04-04T01:04:44.587Z,39.80
2019-04-04T01:06:52.761Z,37.13
2019-04-04T01:09:00.767Z,33.55
2019-04-04T01:11:10.165Z,36.20
2019-04-04T01:13:17.838Z,35.05
2019-04-04T01:15:26.649Z,36.13
2019-04-04T01:17:35.050Z,32.55
2019-04-04T01:19:43.359Z,33.98
2019-04-04T01:21:53.179Z,36.05
2019-04-04T01:24:00.495Z,31.65
2019-04-04T01:26:08.455Z,32.85
2019-04-04T01:28:16.101Z,39.15
2019-04-04T01:30:24.863Z,35.30
2019-04-04T01:32:32.582Z,34.13
2019-04-04T01:34:40.558Z,33.63
2019-04-04T01:36:48.326Z,32.17
2019-04-04T01:39:00.157Z,32.65
2019-04-04T01:41:08.887Z,39.58
2019-04-04T01:43:16.583Z,34.95
2019-04-04T01:45:25.243Z,35.58
2019-04-04T01:47:32.917Z,34.95
2019-04-04T01:49:40.637Z,33.78
2019-04-04T01:51:48.305Z,34.75
2019-04-04T01:53:55.978Z,32.95
2019-04-04T01:56:05.852Z,32.00
2019-04-04T01:58:13.204Z,36.17
2019-04-04T02:00:21.112Z,32.95
2019-04-04T02:02:28.816Z,31.20
2019-04-04T02:04:37.513Z,31.07
2019-04-04T02:06:45.281Z,40.20
2019-04-04T02:08:53.038Z,33.80
2019-04-04T02:11:00.726Z,31.05
2019-04-04T02:13:09.959Z,32.42
2019-04-04T02:15:17.900Z,33.73
2019-04-04T02:17:26.763Z,35.58
2019-04-04T02:19:34.435Z,35.38
2019-04-04T02:21:42.139Z,34.78
2019-04-04T02:23:49.905Z,40.65
2019-04-04T02:25:57.654Z,33.30
2019-04-04T02:28:06.947Z,36.68
2019-04-04T02:30:16.725Z,36.20
2019-04-04T02:32:26.700Z,32.05
2019-04-04T02:34:37.862Z,37.45
2019-04-04T02:36:48.876Z,34.20
2019-04-04T02:39:15.776Z,30.48
2019-04-04T02:41:23.614Z,33.02
2019-04-04T02:43:31.284Z,42.05
2019-04-04T02:45:39.142Z,34.65
2019-04-04T02:47:50.298Z,31.20
2019-04-04T02:50:00.679Z,32.48
2019-04-04T02:52:06.885Z,35.98
2019-04-04T02:54:15.778Z,34.90
2019-04-04T02:56:23.611Z,35.68
2019-04-04T02:58:31.281Z,33.13
2019-04-04T03:00:39.045Z,33.98
2019-04-04T03:02:46.873Z,35.85
2019-04-04T03:04:54.613Z,34.03
2019-04-04T03:07:02.475Z,29.90
2019-04-04T03:09:10.619Z,33.95
2019-04-04T03:11:21.261Z,35.17
2019-04-04T03:13:31.294Z,34.08
2019-04-04T03:15:41.246Z,32.53
2019-04-04T03:17:48.657Z,34.05
2019-04-04T03:19:56.426Z,34.45
2019-04-04T03:22:04.098Z,40.95
2019-04-04T03:24:11.790Z,37.78
2019-04-04T03:26:20.547Z,40.12
2019-04-04T03:28:31.330Z,42.65
2019-04-04T03:30:38.182Z,38.30
2019-04-04T03:32:51.695Z,36.48
2019-04-04T03:34:55.436Z,37.85
2019-04-04T03:37:06.476Z,41.68
2019-04-04T03:39:13.632Z,40.03
2019-04-04T03:41:22.272Z,41.00
2019-04-04T03:43:30.086Z,39.38
2019-04-04T03:45:37.914Z,34.25
2019-04-04T03:47:45.572Z,34.13
2019-04-04T03:49:56.348Z,34.00
2019-04-04T03:52:02.721Z,34.78
2019-04-04T03:54:15.247Z,31.97
2019-04-04T03:56:23.018Z,32.95
2019-04-04T03:58:30.744Z,35.38
2019-04-04T04:00:40.355Z,39.33
2019-04-04T04:02:50.168Z,31.15
2019-04-04T04:05:00.529Z,35.20
2019-04-04T04:07:07.775Z,38.42
2019-04-04T04:09:15.638Z,32.23
2019-04-04T04:11:24.601Z,32.73
2019-04-04T04:13:32.371Z,34.18
2019-04-04T04:15:40.056Z,32.75
2019-04-04T04:17:47.737Z,37.30
2019-04-04T04:19:55.482Z,37.67
2019-04-04T04:22:04.298Z,43.65
2019-04-04T04:24:12.106Z,37.05
2019-04-04T04:26:20.026Z,35.08
2019-04-04T04:28:27.699Z,33.63
2019-04-04T04:30:39.389Z,36.48
2019-04-04T04:32:45.033Z,37.10
2019-04-04T04:34:52.775Z,37.60
2019-04-04T04:37:00.581Z,38.67
2019-04-04T04:39:08.238Z,41.10
2019-04-04T04:41:20.064Z,40.98
2019-04-04T04:43:25.239Z,45.45
2019-04-04T04:45:33.083Z,44.77
2019-04-04T04:47:40.851Z,39.08
2019-04-04T04:49:48.738Z,38.13
2019-04-04T04:51:56.410Z,38.13
2019-04-04T04:54:04.079Z,39.13
2019-04-04T04:56:13.056Z,36.93
2019-04-04T04:58:20.731Z,34.70
2019-04-04T05:00:28.508Z,34.80
2019-04-04T05:02:36.265Z,35.40
2019-04-04T05:04:44.162Z,36.20
2019-04-04T05:06:51.898Z,35.40
2019-04-04T05:08:59.612Z,40.23
2019-04-04T05:11:07.392Z,32.35
2019-04-04T05:13:15.168Z,37.48
2019-04-04T05:15:22.872Z,36.93
2019-04-04T05:17:30.539Z,37.20
2019-04-04T05:19:39.284Z,41.18
2019-04-04T05:21:47.054Z,32.13
2019-04-04T05:23:54.730Z,324.02
2019-04-04T05:26:03.198Z,44.67
2019-04-04T05:28:11.483Z,39.33
2019-04-04T05:30:20.458Z,34.25
2019-04-04T05:32:28.343Z,39.15
2019-04-04T05:34:36.131Z,37.60
2019-04-04T05:36:44.092Z,39.25
2019-04-04T05:38:54.786Z,40.28
2019-04-04T05:41:02.581Z,37.60
2019-04-04T05:43:10.257Z,37.28
2019-04-04T05:45:18.174Z,39.95
2019-04-04T05:47:26.048Z,39.92
2019-04-04T05:49:33.855Z,39.48
2019-04-04T05:51:41.670Z,41.05
2019-04-04T05:53:49.370Z,36.45
2019-04-04T05:55:57.375Z,37.53
2019-04-04T05:58:05.114Z,36.17
2019-04-04T06:00:14.307Z,38.75
2019-04-04T06:02:22.241Z,40.30
2019-04-04T06:04:29.914Z,34.65
2019-04-04T06:06:37.781Z,39.35
2019-04-04T06:08:45.481Z,41.20
2019-04-04T06:10:53.222Z,36.05
2019-04-04T06:13:00.925Z,39.98
2019-04-04T06:15:08.942Z,32.50
2019-04-04T06:17:16.747Z,42.20
2019-04-04T06:19:24.536Z,41.53
2019-04-04T06:21:33.083Z,41.75
2019-04-04T06:23:40.752Z,34.60
2019-04-04T06:25:48.514Z,42.27
2019-04-04T06:27:56.188Z,39.30
2019-04-04T06:30:04.994Z,37.75
2019-04-04T06:32:14.036Z,39.45
2019-04-04T06:34:23.973Z,39.13
2019-04-04T06:36:30.994Z,36.38
2019-04-04T06:38:38.684Z,38.40
2019-04-04T06:40:46.352Z,36.48
2019-04-04T06:42:54.033Z,39.10
2019-04-04T06:45:01.904Z,34.90
2019-04-04T06:47:10.762Z,42.93
2019-04-04T06:49:18.538Z,37.95
2019-04-04T06:51:26.374Z,40.83
2019-04-04T06:53:34.048Z,43.20
2019-04-04T06:55:41.822Z,42.90
2019-04-04T06:57:51.266Z,39.65
2019-04-04T07:00:00.366Z,39.48
2019-04-04T07:02:08.106Z,37.73
2019-04-04T07:04:17.389Z,43.48
2019-04-04T07:06:25.399Z,43.48
2019-04-04T07:08:33.136Z,41.10
2019-04-04T07:10:42.034Z,44.90
2019-04-04T07:12:49.812Z,42.55
2019-04-04T07:14:57.602Z,42.27
2019-04-04T07:17:08.288Z,39.60
2019-04-04T07:19:15.178Z,40.15
2019-04-04T07:21:23.086Z,42.85
2019-04-04T07:23:30.863Z,46.08
2019-04-04T07:25:39.875Z,41.30
2019-04-04T07:27:48.074Z,46.08
2019-04-04T07:29:56.916Z,46.90
2019-04-04T07:32:05.134Z,41.10
2019-04-04T07:34:13.738Z,39.95
2019-04-04T07:36:21.909Z,44.45
2019-04-04T07:38:30.782Z,52.90
2019-04-04T07:40:38.596Z,44.95
2019-04-04T07:42:47.926Z,39.88
2019-04-04T07:44:55.961Z,50.12
2019-04-04T07:47:04.788Z,40.73
2019-04-04T07:49:12.507Z,45.67
2019-04-04T07:51:21.271Z,35.92
2019-04-04T07:53:30.031Z,40.83
2019-04-04T07:55:37.893Z,35.78
2019-04-04T07:57:45.658Z,28.73
2019-04-04T07:59:54.482Z,29.05
2019-04-04T08:02:02.300Z,33.65
2019-04-04T08:04:09.988Z,31.30
2019-04-04T08:06:17.678Z,33.88
2019-04-04T08:08:25.503Z,31.17
2019-04-04T08:10:34.433Z,30.72
2019-04-04T08:12:42.362Z,29.95
2019-04-04T08:14:50.419Z,31.12
2019-04-04T08:16:59.484Z,37.28
2019-04-04T08:19:07.385Z,25.88
2019-04-04T08:21:15.263Z,29.02
2019-04-04T08:23:24.027Z,33.28
2019-04-04T08:25:31.821Z,31.02
2019-04-04T08:27:39.668Z,36.73
2019-04-04T08:29:47.360Z,35.08
2019-04-04T08:31:55.083Z,63.65
2019-04-04T08:34:02.917Z,36.38
2019-04-04T08:36:10.616Z,41.15
2019-04-04T08:38:18.309Z,32.55
2019-04-04T08:40:26.195Z,34.83
2019-04-04T08:42:33.982Z,31.95
2019-04-04T08:44:42.067Z,32.70
2019-04-04T08:46:50.951Z,27.60
2019-04-04T08:48:58.714Z,29.72
2019-04-04T08:51:06.649Z,34.98
2019-04-04T08:53:14.370Z,48.20
2019-04-04T08:55:22.189Z,40.60
2019-04-04T08:57:29.878Z,28.65
2019-04-04T08:59:37.785Z,29.80
2019-04-04T09:01:46.706Z,28.25
2019-04-04T09:03:54.390Z,34.03
2019-04-04T09:06:02.211Z,38.95
2019-04-04T09:08:10.090Z,34.15
2019-04-04T09:10:18.088Z,29.52
2019-04-04T09:12:25.724Z,31.48
2019-04-04T09:14:33.485Z,29.37
2019-04-04T09:16:41.339Z,33.48
2019-04-04T09:18:49.142Z,36.88
2019-04-04T09:20:56.834Z,30.82
2019-04-04T09:23:04.593Z,39.70
2019-04-04T09:25:13.747Z,34.75
2019-04-04T09:27:21.610Z,33.65
2019-04-04T09:29:29.403Z,42.90
2019-04-04T09:31:37.219Z,44.03
2019-04-04T09:33:44.813Z,57.67
2019-04-04T09:35:52.602Z,65.87
2019-04-04T09:38:01.400Z,40.33
2019-04-04T09:40:09.995Z,55.38
2019-04-04T09:42:17.760Z,65.35
2019-04-04T09:44:25.479Z,50.25
2019-04-04T09:46:33.266Z,31.82
2019-04-04T09:48:41.048Z,35.83
2019-04-04T09:50:48.763Z,31.40
2019-04-04T09:52:56.520Z,33.40
2019-04-04T09:55:05.958Z,28.23
2019-04-04T09:57:14.939Z,40.92
2019-04-04T09:59:22.623Z,42.65
2019-04-04T10:01:30.309Z,26.35
2019-04-04T10:03:38.124Z,45.55
2019-04-04T10:05:46.017Z,30.65
2019-04-04T10:07:53.806Z,30.17
2019-04-04T10:10:03.152Z,28.12
2019-04-04T10:12:10.805Z,33.08
2019-04-04T10:14:18.497Z,37.58
2019-04-04T10:16:26.382Z,27.75
2019-04-04T10:18:34.071Z,26.10
2019-04-04T10:20:41.765Z,26.35
2019-04-04T10:22:49.492Z,29.10
2019-04-04T10:24:57.179Z,25.30
2019-04-04T10:27:05.331Z,31.07
2019-04-04T10:29:13.218Z,26.70
2019-04-04T10:31:21.004Z,30.97
2019-04-04T10:33:28.794Z,25.60
2019-04-04T10:35:36.536Z,24.72
2019-04-04T10:37:44.522Z,24.90
2019-04-04T10:39:52.381Z,25.62
2019-04-04T10:42:00.109Z,27.10
2019-04-04T10:44:07.870Z,24.50
2019-04-04T10:46:15.757Z,36.48
2019-04-04T10:48:23.486Z,30.77
2019-04-04T10:50:31.354Z,33.70
2019-04-04T10:52:40.775Z,21.97
2019-04-04T10:54:48.508Z,26.62
2019-04-04T10:56:56.195Z,28.92
2019-04-04T10:59:03.893Z,42.10
2019-04-04T11:01:11.612Z,24.35
2019-04-04T11:03:19.299Z,25.23
2019-04-04T11:05:27.222Z,23.75
2019-04-04T11:07:35.777Z,29.75
2019-04-04T11:09:43.610Z,26.73
2019-04-04T11:11:51.295Z,26.60
2019-04-04T11:13:59.115Z,31.55
2019-04-04T11:16:06.959Z,29.92
2019-04-04T11:18:14.784Z,29.98
2019-04-04T11:20:22.465Z,24.23
2019-04-04T11:22:30.627Z,28.62
2019-04-04T11:24:38.411Z,24.90
2019-04-04T11:26:46.239Z,24.30
2019-04-04T11:28:54.202Z,20.52
2019-04-04T11:31:01.874Z,33.58
2019-04-04T11:33:09.588Z,31.80
2019-04-04T11:35:17.347Z,25.75
2019-04-04T11:37:25.106Z,25.43
2019-04-04T11:39:33.005Z,18.82
2019-04-04T11:41:40.690Z,18.07
2019-04-04T11:43:48.491Z,24.25
2019-04-04T11:45:56.301Z,23.98
2019-04-04T11:48:03.991Z,23.40
2019-04-04T11:50:12.227Z,19.35
2019-04-04T11:52:21.221Z,21.73
2019-04-04T11:54:28.912Z,24.50
2019-04-04T11:56:36.611Z,22.45
2019-04-04T11:58:44.739Z,22.55
2019-04-04T12:00:57.062Z,22.45
2019-04-04T12:03:04.826Z,22.75
2019-04-04T12:05:12.782Z,18.70
2019-04-04T12:07:20.585Z,35.90
2019-04-04T12:09:29.443Z,27.55
2019-04-04T12:11:37.628Z,25.77
2019-04-04T12:13:45.488Z,24.60
2019-04-04T12:15:53.178Z,28.50
2019-04-04T12:18:01.021Z,30.27
2019-04-04T12:20:09.619Z,24.63
2019-04-04T12:22:17.471Z,28.40
2019-04-04T12:24:25.217Z,29.80
2019-04-04T12:26:33.002Z,35.25
2019-04-04T12:28:40.702Z,33.98
2019-04-04T12:30:49.608Z,39.50
2019-04-04T12:32:57.304Z,28.80
2019-04-04T12:35:06.102Z,27.22
2019-04-04T12:37:13.887Z,35.45
2019-04-04T12:39:21.579Z,30.60
2019-04-04T12:41:29.279Z,26.62
2019-04-04T12:43:36.984Z,29.90
2019-04-04T12:45:45.009Z,36.53
2019-04-04T12:47:52.926Z,27.85
2019-04-04T12:50:00.745Z,31.77
2019-04-04T12:52:08.741Z,31.40
2019-04-04T12:54:17.602Z,31.95
2019-04-04T12:56:26.495Z,29.72
2019-04-04T12:58:34.282Z,28.52
2019-04-04T13:00:41.978Z,30.82
2019-04-04T13:02:50.879Z,32.75
2019-04-04T13:04:59.754Z,31.90
2019-04-04T13:07:07.582Z,35.13
2019-04-04T13:09:15.318Z,27.67
2019-04-04T13:11:24.205Z,29.07
2019-04-04T13:13:31.994Z,20.57
2019-04-04T13:15:39.732Z,61.10
2019-04-04T13:17:47.447Z,63.33
2019-04-04T13:19:55.176Z,40.73
2019-04-04T13:22:03.121Z,31.55
2019-04-04T13:24:10.905Z,30.30
2019-04-04T13:26:18.743Z,33.63
2019-04-04T13:28:26.639Z,44.60
2019-04-04T13:30:36.591Z,29.00
2019-04-04T13:32:44.617Z,25.12
2019-04-04T13:34:59.091Z,45.15
2019-04-04T13:37:01.794Z,37.13
2019-04-04T13:39:11.195Z,32.53
2019-04-04T13:41:22.252Z,33.92
2019-04-04T13:43:29.380Z,32.53
2019-04-04T13:45:37.046Z,25.30
2019-04-04T13:47:44.956Z,22.30
2019-04-04T13:49:52.647Z,24.82
2019-04-04T13:52:00.493Z,34.03
2019-04-04T13:54:08.351Z,30.05
2019-04-04T13:56:16.156Z,23.92
2019-04-04T13:58:23.950Z,34.40
2019-04-04T14:00:31.851Z,35.20
2019-04-04T14:02:40.007Z,24.40
2019-04-04T14:04:47.865Z,39.67
2019-04-04T14:06:55.576Z,25.35
2019-04-04T14:09:03.269Z,36.58
2019-04-04T14:11:12.221Z,22.00
2019-04-04T14:13:19.941Z,23.95
2019-04-04T14:15:27.725Z,24.10
2019-04-04T14:17:35.484Z,24.37
2019-04-04T14:19:43.369Z,38.30
2019-04-04T14:21:51.118Z,66.28
2019-04-04T14:24:12.068Z,33.78
2019-04-04T14:26:08.265Z,38.10
2019-04-04T14:28:15.934Z,40.80
2019-04-04T14:30:24.158Z,28.45
2019-04-04T14:32:31.979Z,30.68
2019-04-04T14:34:39.770Z,28.98
2019-04-04T14:36:47.659Z,23.95
2019-04-04T14:38:55.579Z,42.25
2019-04-04T14:41:11.184Z,37.38
2019-04-04T14:43:12.779Z,36.23
2019-04-04T14:45:20.590Z,25.82
2019-04-04T14:47:28.381Z,21.62
2019-04-04T14:49:36.172Z,20.02
2019-04-04T14:51:44.069Z,50.00
2019-04-04T14:53:51.768Z,110.35
2019-04-04T14:55:59.465Z,180.00
2019-04-04T14:58:07.356Z,112.97
2019-04-04T15:00:17.041Z,231.20
2019-04-04T15:02:24.734Z,58.38
2019-04-04T15:04:32.374Z,48.60
2019-04-04T15:06:41.645Z,43.15
2019-04-04T15:08:49.399Z,62.27
2019-04-04T15:10:57.187Z,35.68
2019-04-04T15:13:04.980Z,37.78
2019-04-04T15:15:13.111Z,44.75
2019-04-04T15:17:20.949Z,49.20
2019-04-04T15:19:28.631Z,41.98
2019-04-04T15:21:36.398Z,30.50
2019-04-04T15:23:44.306Z,27.13
2019-04-04T15:25:51.997Z,38.53
2019-04-04T15:27:59.888Z,33.00
2019-04-04T15:30:09.803Z,31.85
2019-04-04T15:32:18.735Z,29.20
2019-04-04T15:34:26.446Z,23.15
2019-04-04T15:36:34.272Z,27.20
2019-04-04T15:38:42.055Z,26.52
2019-04-04T15:40:49.847Z,32.45
2019-04-04T15:42:57.668Z,28.52
2019-04-04T15:45:07.536Z,24.47
2019-04-04T15:47:16.258Z,29.18
2019-04-04T15:49:24.057Z,26.37
2019-04-04T15:51:31.748Z,29.35
2019-04-04T15:53:39.509Z,28.62
2019-04-04T15:55:47.323Z,41.10
2019-04-04T15:57:55.017Z,55.30
2019-04-04T16:00:02.974Z,27.10
2019-04-04T16:02:12.066Z,33.35
2019-04-04T16:04:20.939Z,34.67
2019-04-04T16:06:28.728Z,45.05
2019-04-04T16:08:36.562Z,31.73
2019-04-04T16:10:45.446Z,30.40
2019-04-04T16:12:53.229Z,38.58
2019-04-04T16:15:01.043Z,38.38
2019-04-04T16:17:08.998Z,26.00
2019-04-04T16:19:16.692Z,49.65
2019-04-04T16:21:24.561Z,31.82
2019-04-04T16:23:32.331Z,54.23
2019-04-04T16:25:40.118Z,29.30
2019-04-04T16:27:48.079Z,28.90
2019-04-04T16:29:55.983Z,23.50
2019-04-04T16:32:03.683Z,27.62
2019-04-04T16:34:11.762Z,26.55
2019-04-04T16:36:19.450Z,36.30
2019-04-04T16:38:27.247Z,27.95
2019-04-04T16:40:34.963Z,27.45
2019-04-04T16:42:42.659Z,28.27
2019-04-04T16:44:51.530Z,40.38
2019-04-04T16:46:59.336Z,60.23
2019-04-04T16:49:07.196Z,35.30
2019-04-04T16:51:14.971Z,109.85
2019-04-04T16:53:22.700Z,68.12
2019-04-04T16:55:31.390Z,50.73
2019-04-04T16:57:39.079Z,42.08
2019-04-04T17:02:32.970Z,26.97
2019-04-04T17:04:40.765Z,26.82
2019-04-04T17:06:48.580Z,96.72
2019-04-04T17:08:56.395Z,141.35
2019-04-04T17:11:04.402Z,67.22
2019-04-04T17:13:12.373Z,54.05
2019-04-04T17:15:20.233Z,64.05
2019-04-04T17:17:27.951Z,156.02
2019-04-04T17:19:35.635Z,148.57
2019-04-04T17:21:43.475Z,364.42
2019-04-04T17:23:51.355Z,409.93
2019-04-04T17:25:59.063Z,176.12
2019-04-04T17:28:07.178Z,638.25
2019-04-04T17:30:16.045Z,362.65
2019-04-04T17:32:24.621Z,424.32
2019-04-04T17:34:32.953Z,531.92
2019-04-04T17:36:41.403Z,429.90
2019-04-04T17:38:49.250Z,306.63
2019-04-04T17:40:57.181Z,331.75
2019-04-04T17:43:05.037Z,303.40
2019-04-04T17:45:13.747Z,339.77
2019-04-04T17:47:21.718Z,149.23
2019-04-04T17:49:29.570Z,184.75
2019-04-04T17:51:37.642Z,90.38
2019-04-04T17:53:45.694Z,100.15
2019-04-04T17:55:54.880Z,50.90
2019-04-04T17:58:04.557Z,41.05
2019-04-04T18:00:13.624Z,60.08
2019-04-04T18:02:21.933Z,131.00
2019-04-04T18:04:29.747Z,173.40
2019-04-04T18:06:37.495Z,74.55
2019-04-04T18:08:45.198Z,69.00
2019-04-04T18:10:52.870Z,67.27
2019-04-04T18:13:02.242Z,76.87
2019-04-04T18:15:10.919Z,56.50
2019-04-04T18:17:18.682Z,47.23
2019-04-04T18:19:26.574Z,47.93
2019-04-04T18:21:34.273Z,47.60
2019-04-04T18:23:43.096Z,64.60
2019-04-04T18:25:50.935Z,87.95
2019-04-04T18:27:59.225Z,102.72
2019-04-04T18:30:12.957Z,116.45
2019-04-04T18:32:20.983Z,107.35
2019-04-04T18:34:29.230Z,100.33
2019-04-04T18:36:37.066Z,90.42
2019-04-04T18:38:45.097Z,92.65
2019-04-04T18:40:52.896Z,96.32
2019-04-04T18:43:01.849Z,96.55
2019-04-04T18:45:10.753Z,102.82
2019-04-04T18:47:18.457Z,101.50
2019-04-04T18:49:26.405Z,97.62
2019-04-04T18:51:34.089Z,92.25
2019-04-04T18:53:41.955Z,89.90
2019-04-04T18:55:49.844Z,85.30
2019-04-04T18:57:57.658Z,91.22
2019-04-04T19:00:09.643Z,90.47
2019-04-04T19:02:17.550Z,97.65
2019-04-04T19:04:26.473Z,92.55
2019-04-04T19:06:34.747Z,90.77
2019-04-04T19:08:42.456Z,90.55
2019-04-04T19:10:50.199Z,89.92
2019-04-04T19:13:05.359Z,88.60
2019-04-04T19:15:09.030Z,87.95
2019-04-04T19:17:17.943Z,90.22
2019-04-04T19:19:25.814Z,98.97
2019-04-04T19:21:33.687Z,92.37
2019-04-04T19:23:49.268Z,120.87
2019-04-04T19:25:51.120Z,119.37
2019-04-04T19:27:58.989Z,126.55
2019-04-04T19:30:10.628Z,137.97
2019-04-04T19:32:18.400Z,203.25
2019-04-04T19:34:26.279Z,145.65
2019-04-04T19:36:34.005Z,84.03
2019-04-04T19:38:41.971Z,86.80
2019-04-04T19:40:49.680Z,78.87
2019-04-04T19:42:57.477Z,128.10
2019-04-04T19:45:08.561Z,91.28
2019-04-04T19:47:16.500Z,85.47
2019-04-04T19:49:24.243Z,77.08
2019-04-04T19:51:32.247Z,70.70
2019-04-04T19:53:40.116Z,95.30
2019-04-04T19:55:47.843Z,114.37
2019-04-04T19:57:55.557Z,91.42
2019-04-04T20:00:05.332Z,167.70
2019-04-04T20:02:13.298Z,98.42
2019-04-04T20:04:21.303Z,109.70
2019-04-04T20:06:29.270Z,142.53
2019-04-04T20:08:37.023Z,141.22
2019-04-04T20:10:45.130Z,148.93
2019-04-04T20:12:52.839Z,134.45
2019-04-04T20:15:00.842Z,89.75
2019-04-04T20:17:09.701Z,91.60
2019-04-04T20:19:17.404Z,113.03
2019-04-04T20:21:25.287Z,86.15
2019-04-04T20:23:33.064Z,143.47
2019-04-04T20:25:40.795Z,93.67
2019-04-04T20:27:54.463Z,68.30
2019-04-04T20:29:58.059Z,67.87
2019-04-04T20:32:06.900Z,70.45
2019-04-04T20:34:14.619Z,82.65
2019-04-04T20:36:22.615Z,64.12
2019-04-04T20:38:30.318Z,73.85
2019-04-04T20:40:38.188Z,94.60
2019-04-04T20:42:45.959Z,72.92
2019-04-04T20:44:53.785Z,92.02
2019-04-04T20:47:01.694Z,71.05
2019-04-04T20:49:09.551Z,72.03
2019-04-04T20:51:17.364Z,69.47
2019-04-04T20:53:26.650Z,69.30
2019-04-04T20:55:34.389Z,64.12
2019-04-04T20:57:42.070Z,70.15
2019-04-04T20:59:49.909Z,72.87
2019-04-04T21:01:57.666Z,75.15
2019-04-04T21:04:05.624Z,69.22
2019-04-04T21:06:13.547Z,71.15
2019-04-04T21:08:21.555Z,63.65
2019-04-04T21:10:29.342Z,68.97
2019-04-04T21:12:37.128Z,69.30
2019-04-04T21:14:44.932Z,71.12
2019-04-04T21:16:52.623Z,72.12
2019-04-04T21:19:00.429Z,70.10
2019-04-04T21:21:08.172Z,64.90
2019-04-04T21:23:15.860Z,67.40
2019-04-04T21:25:23.583Z,69.37
2019-04-04T21:27:31.264Z,75.08
2019-04-04T21:29:39.104Z,65.83
2019-04-04T21:31:46.923Z,74.10
2019-04-04T21:33:54.716Z,68.95
2019-04-04T21:36:02.510Z,63.40
2019-04-04T21:38:10.320Z,64.17
2019-04-04T21:40:18.151Z,69.32
2019-04-04T21:42:27.088Z,69.32
2019-04-04T21:44:34.894Z,67.55
2019-04-04T21:46:42.667Z,71.55
2019-04-04T21:48:51.509Z,72.37
2019-04-04T21:50:59.317Z,72.50
2019-04-04T21:53:06.988Z,72.67
2019-04-04T21:55:14.810Z,71.77
2019-04-04T21:57:22.612Z,68.80
2019-04-04T21:59:30.460Z,74.40
2019-04-04T22:01:38.139Z,69.22
2019-04-04T22:03:45.910Z,73.15
2019-04-04T22:05:53.754Z,72.65
2019-04-04T22:08:01.595Z,68.30
2019-04-04T22:10:09.860Z,61.53
2019-04-04T22:12:17.612Z,58.95
2019-04-04T22:14:25.559Z,58.00
2019-04-04T22:16:33.263Z,63.13
2019-04-04T22:18:41.056Z,60.83
2019-04-04T22:20:48.731Z,56.23
2019-04-04T22:22:56.439Z,58.10
2019-04-04T22:25:06.123Z,56.37
2019-04-04T22:27:13.872Z,56.77
2019-04-04T22:29:21.604Z,61.88
2019-04-04T22:31:30.465Z,54.23
2019-04-04T22:33:38.160Z,55.15
2019-04-04T22:35:47.049Z,49.33
2019-04-04T22:37:54.794Z,52.05
2019-04-04T22:40:02.468Z,52.48
2019-04-04T22:42:10.181Z,47.45
2019-04-04T22:44:17.855Z,49.08
2019-04-04T22:46:25.641Z,55.63
2019-04-04T22:48:33.450Z,58.63
2019-04-04T22:50:42.376Z,53.92
2019-04-04T22:52:50.056Z,52.25
2019-04-04T22:54:57.820Z,60.52
2019-04-04T22:57:05.703Z,51.20
2019-04-04T22:59:13.450Z,51.92
2019-04-04T23:01:21.274Z,51.00
2019-04-04T23:03:29.728Z,51.48
2019-04-04T23:05:38.607Z,51.90
2019-04-04T23:07:46.231Z,51.08
2019-04-04T23:09:53.911Z,51.75
2019-04-04T23:12:01.583Z,48.80
2019-04-04T23:14:09.474Z,54.90
2019-04-04T23:16:17.143Z,52.40
2019-04-04T23:18:24.929Z,54.77
2019-04-04T23:20:32.724Z,54.15
2019-04-04T23:22:52.278Z,42.50
2019-04-04T23:24:49.773Z,47.23
2019-04-04T23:26:57.602Z,45.48
2019-04-04T23:29:05.372Z,46.18
2019-04-04T23:31:13.142Z,51.00
2019-04-04T23:33:20.944Z,46.80
2019-04-04T23:35:28.720Z,47.27
2019-04-04T23:37:36.681Z,50.43
2019-04-04T23:39:44.554Z,45.25
2019-04-04T23:41:52.345Z,46.35
2019-04-04T23:44:01.210Z,42.45
2019-04-04T23:46:08.916Z,45.43
2019-04-04T23:48:17.947Z,49.15
2019-04-04T23:50:25.619Z,47.00
2019-04-04T23:52:33.441Z,45.55
2019-04-04T23:54:41.114Z,47.50
2019-04-04T23:56:48.796Z,47.55
2019-04-04T23:58:56.660Z,43.02
